sensor_id;sensor_type;location;lat;lon;timestamp;P1;durP1;ratioP1;P2;durP2;ratioP2
60060;SDS011;45933;51.336;12.612;2023-02-01T00:00:51;6.30;;;3.83;;
60060;SDS011;45933;51.336;12.612;2023-02-01T00:03:16;10.87;;;4.23;;
60060;SDS011;45933;51.336;12.612;2023-02-01T00:05:43;6.67;;;3.40;;
60060;SDS011;45933;51.336;12.612;2023-02-01T00:08:09;7.37;;;3.60;;
60060;SDS011;45933;51.336;12.612;2023-02-01T00:10:34;8.27;;;4.03;;
60060;SDS011;45933;51.336;12.612;2023-02-01T00:12:59;9.40;;;4.30;;
60060;SDS011;45933;51.336;12.612;2023-02-01T00:15:25;13.33;;;4.90;;
60060;SDS011;45933;51.336;12.612;2023-02-01T00:17:53;11.60;;;3.90;;
60060;SDS011;45933;51.336;12.612;2023-02-01T00:20:19;8.77;;;3.87;;
60060;SDS011;45933;51.336;12.612;2023-02-01T00:22:45;9.43;;;3.63;;
60060;SDS011;45933;51.336;12.612;2023-02-01T00:25:10;9.40;;;3.60;;
60060;SDS011;45933;51.336;12.612;2023-02-01T00:27:35;8.90;;;3.67;;
60060;SDS011;45933;51.336;12.612;2023-02-01T00:30:01;10.17;;;3.37;;
60060;SDS011;45933;51.336;12.612;2023-02-01T00:32:26;8.17;;;3.67;;
60060;SDS011;45933;51.336;12.612;2023-02-01T00:34:52;8.67;;;3.53;;
60060;SDS011;45933;51.336;12.612;2023-02-01T00:37:26;10.33;;;3.67;;
60060;SDS011;45933;51.336;12.612;2023-02-01T00:39:51;9.37;;;3.53;;
60060;SDS011;45933;51.336;12.612;2023-02-01T00:42:16;9.10;;;3.47;;
60060;SDS011;45933;51.336;12.612;2023-02-01T00:44:44;16.00;;;3.70;;
60060;SDS011;45933;51.336;12.612;2023-02-01T00:47:13;10.10;;;3.93;;
60060;SDS011;45933;51.336;12.612;2023-02-01T00:49:41;11.97;;;4.00;;
60060;SDS011;45933;51.336;12.612;2023-02-01T00:52:06;12.87;;;3.40;;
60060;SDS011;45933;51.336;12.612;2023-02-01T00:54:35;14.73;;;4.00;;
60060;SDS011;45933;51.336;12.612;2023-02-01T00:57:02;11.30;;;3.33;;
60060;SDS011;45933;51.336;12.612;2023-02-01T00:59:27;9.20;;;3.33;;
60060;SDS011;45933;51.336;12.612;2023-02-01T01:01:52;9.80;;;3.30;;
60060;SDS011;45933;51.336;12.612;2023-02-01T01:04:18;11.90;;;2.83;;
60060;SDS011;45933;51.336;12.612;2023-02-01T01:06:43;9.57;;;3.07;;
60060;SDS011;45933;51.336;12.612;2023-02-01T01:09:08;11.00;;;2.80;;
60060;SDS011;45933;51.336;12.612;2023-02-01T01:11:35;12.27;;;2.80;;
60060;SDS011;45933;51.336;12.612;2023-02-01T01:14:05;9.03;;;2.90;;
60060;SDS011;45933;51.336;12.612;2023-02-01T01:16:32;13.67;;;3.13;;
60060;SDS011;45933;51.336;12.612;2023-02-01T01:18:58;8.43;;;3.10;;
60060;SDS011;45933;51.336;12.612;2023-02-01T01:21:24;8.10;;;3.30;;
60060;SDS011;45933;51.336;12.612;2023-02-01T01:23:50;12.50;;;3.40;;
60060;SDS011;45933;51.336;12.612;2023-02-01T01:26:17;13.37;;;3.60;;
60060;SDS011;45933;51.336;12.612;2023-02-01T01:28:51;13.47;;;3.57;;
60060;SDS011;45933;51.336;12.612;2023-02-01T01:31:18;10.20;;;3.00;;
60060;SDS011;45933;51.336;12.612;2023-02-01T01:33:47;8.37;;;3.10;;
60060;SDS011;45933;51.336;12.612;2023-02-01T01:36:15;12.87;;;3.27;;
60060;SDS011;45933;51.336;12.612;2023-02-01T01:38:43;14.20;;;2.93;;
60060;SDS011;45933;51.336;12.612;2023-02-01T01:41:12;12.87;;;3.00;;
60060;SDS011;45933;51.336;12.612;2023-02-01T01:43:53;15.53;;;2.83;;
60060;SDS011;45933;51.336;12.612;2023-02-01T01:46:26;11.17;;;2.73;;
60060;SDS011;45933;51.336;12.612;2023-02-01T01:52:06;10.30;;;2.83;;
60060;SDS011;45933;51.336;12.612;2023-02-01T01:54:38;11.23;;;2.97;;
60060;SDS011;45933;51.336;12.612;2023-02-01T01:57:11;14.20;;;3.17;;
60060;SDS011;45933;51.336;12.612;2023-02-01T02:00:09;11.27;;;2.90;;
60060;SDS011;45933;51.336;12.612;2023-02-01T02:02:37;9.93;;;2.70;;
60060;SDS011;45933;51.336;12.612;2023-02-01T02:05:05;14.97;;;3.20;;
60060;SDS011;45933;51.336;12.612;2023-02-01T02:07:32;12.33;;;3.30;;
60060;SDS011;45933;51.336;12.612;2023-02-01T02:10:05;9.80;;;3.03;;
60060;SDS011;45933;51.336;12.612;2023-02-01T02:12:37;6.40;;;2.57;;
60060;SDS011;45933;51.336;12.612;2023-02-01T02:15:07;8.43;;;2.93;;
60060;SDS011;45933;51.336;12.612;2023-02-01T02:17:53;10.73;;;2.57;;
60060;SDS011;45933;51.336;12.612;2023-02-01T02:20:38;12.97;;;3.13;;
60060;SDS011;45933;51.336;12.612;2023-02-01T02:41:10;11.07;;;2.90;;
60060;SDS011;45933;51.336;12.612;2023-02-01T02:44:01;15.43;;;2.97;;
60060;SDS011;45933;51.336;12.612;2023-02-01T02:46:56;15.30;;;3.20;;
60060;SDS011;45933;51.336;12.612;2023-02-01T02:50:03;12.50;;;3.00;;
60060;SDS011;45933;51.336;12.612;2023-02-01T02:52:51;9.70;;;2.63;;
60060;SDS011;45933;51.336;12.612;2023-02-01T02:55:42;14.07;;;3.03;;
60060;SDS011;45933;51.336;12.612;2023-02-01T02:58:08;11.00;;;2.90;;
60060;SDS011;45933;51.336;12.612;2023-02-01T03:00:54;11.10;;;2.67;;
60060;SDS011;45933;51.336;12.612;2023-02-01T03:03:40;17.40;;;3.23;;
60060;SDS011;45933;51.336;12.612;2023-02-01T03:06:24;12.77;;;2.80;;
60060;SDS011;45933;51.336;12.612;2023-02-01T03:08:50;9.17;;;2.53;;
60060;SDS011;45933;51.336;12.612;2023-02-01T03:11:19;11.93;;;2.77;;
60060;SDS011;45933;51.336;12.612;2023-02-01T03:18:58;10.13;;;2.77;;
60060;SDS011;45933;51.336;12.612;2023-02-01T03:21:45;9.43;;;2.70;;
60060;SDS011;45933;51.336;12.612;2023-02-01T03:24:26;8.73;;;2.73;;
60060;SDS011;45933;51.336;12.612;2023-02-01T03:27:11;9.93;;;2.63;;
60060;SDS011;45933;51.336;12.612;2023-02-01T03:29:46;10.50;;;2.63;;
60060;SDS011;45933;51.336;12.612;2023-02-01T03:32:17;11.53;;;2.37;;
60060;SDS011;45933;51.336;12.612;2023-02-01T03:34:43;8.40;;;2.50;;
60060;SDS011;45933;51.336;12.612;2023-02-01T03:37:09;12.27;;;2.67;;
60060;SDS011;45933;51.336;12.612;2023-02-01T03:39:39;11.57;;;3.27;;
60060;SDS011;45933;51.336;12.612;2023-02-01T03:42:14;10.67;;;2.70;;
60060;SDS011;45933;51.336;12.612;2023-02-01T03:45:18;9.90;;;2.90;;
60060;SDS011;45933;51.336;12.612;2023-02-01T03:47:37;13.50;;;2.83;;
60060;SDS011;45933;51.336;12.612;2023-02-01T03:50:07;13.03;;;3.00;;
60060;SDS011;45933;51.336;12.612;2023-02-01T03:52:44;13.33;;;2.90;;
60060;SDS011;45933;51.336;12.612;2023-02-01T03:55:16;13.50;;;3.00;;
60060;SDS011;45933;51.336;12.612;2023-02-01T03:57:46;11.30;;;2.53;;
60060;SDS011;45933;51.336;12.612;2023-02-01T04:00:21;13.37;;;2.80;;
60060;SDS011;45933;51.336;12.612;2023-02-01T04:02:48;15.63;;;2.93;;
60060;SDS011;45933;51.336;12.612;2023-02-01T04:05:14;13.80;;;2.77;;
60060;SDS011;45933;51.336;12.612;2023-02-01T04:07:39;10.77;;;2.57;;
60060;SDS011;45933;51.336;12.612;2023-02-01T04:10:05;14.87;;;3.17;;
60060;SDS011;45933;51.336;12.612;2023-02-01T04:12:30;12.67;;;3.20;;
60060;SDS011;45933;51.336;12.612;2023-02-01T04:14:56;7.60;;;2.57;;
60060;SDS011;45933;51.336;12.612;2023-02-01T04:17:21;12.00;;;2.97;;
60060;SDS011;45933;51.336;12.612;2023-02-01T04:19:46;15.70;;;2.70;;
60060;SDS011;45933;51.336;12.612;2023-02-01T04:22:12;12.57;;;2.73;;
60060;SDS011;45933;51.336;12.612;2023-02-01T04:24:37;17.37;;;3.27;;
60060;SDS011;45933;51.336;12.612;2023-02-01T04:27:03;14.67;;;2.93;;
60060;SDS011;45933;51.336;12.612;2023-02-01T04:29:28;11.13;;;2.77;;
60060;SDS011;45933;51.336;12.612;2023-02-01T04:31:53;13.53;;;3.27;;
60060;SDS011;45933;51.336;12.612;2023-02-01T04:34:18;10.07;;;2.63;;
60060;SDS011;45933;51.336;12.612;2023-02-01T04:36:44;14.20;;;2.97;;
60060;SDS011;45933;51.336;12.612;2023-02-01T04:39:09;15.27;;;2.97;;
60060;SDS011;45933;51.336;12.612;2023-02-01T04:41:35;17.70;;;3.07;;
60060;SDS011;45933;51.336;12.612;2023-02-01T04:44:00;11.97;;;3.60;;
60060;SDS011;45933;51.336;12.612;2023-02-01T04:46:26;11.17;;;3.13;;
60060;SDS011;45933;51.336;12.612;2023-02-01T04:48:51;17.07;;;4.47;;
60060;SDS011;45933;51.336;12.612;2023-02-01T04:51:17;11.50;;;3.50;;
60060;SDS011;45933;51.336;12.612;2023-02-01T04:53:43;13.20;;;2.90;;
60060;SDS011;45933;51.336;12.612;2023-02-01T04:56:08;15.10;;;2.90;;
60060;SDS011;45933;51.336;12.612;2023-02-01T04:58:34;14.07;;;3.17;;
60060;SDS011;45933;51.336;12.612;2023-02-01T05:00:59;17.30;;;2.80;;
60060;SDS011;45933;51.336;12.612;2023-02-01T05:03:29;11.17;;;2.90;;
60060;SDS011;45933;51.336;12.612;2023-02-01T05:05:55;10.83;;;3.00;;
60060;SDS011;45933;51.336;12.612;2023-02-01T05:08:20;11.23;;;2.80;;
60060;SDS011;45933;51.336;12.612;2023-02-01T05:10:47;12.43;;;2.47;;
60060;SDS011;45933;51.336;12.612;2023-02-01T05:13:13;12.87;;;2.90;;
60060;SDS011;45933;51.336;12.612;2023-02-01T05:15:57;17.43;;;3.53;;
60060;SDS011;45933;51.336;12.612;2023-02-01T05:18:22;12.67;;;3.23;;
60060;SDS011;45933;51.336;12.612;2023-02-01T05:20:47;11.37;;;3.30;;
60060;SDS011;45933;51.336;12.612;2023-02-01T05:23:13;9.97;;;2.93;;
60060;SDS011;45933;51.336;12.612;2023-02-01T05:25:38;11.30;;;3.10;;
60060;SDS011;45933;51.336;12.612;2023-02-01T05:28:03;16.13;;;2.80;;
60060;SDS011;45933;51.336;12.612;2023-02-01T05:30:29;18.47;;;3.13;;
60060;SDS011;45933;51.336;12.612;2023-02-01T05:32:54;14.80;;;3.30;;
60060;SDS011;45933;51.336;12.612;2023-02-01T05:35:20;10.10;;;2.97;;
60060;SDS011;45933;51.336;12.612;2023-02-01T05:37:45;11.40;;;2.80;;
60060;SDS011;45933;51.336;12.612;2023-02-01T05:40:11;14.77;;;3.03;;
60060;SDS011;45933;51.336;12.612;2023-02-01T05:42:36;11.63;;;3.20;;
60060;SDS011;45933;51.336;12.612;2023-02-01T05:45:02;13.90;;;3.60;;
60060;SDS011;45933;51.336;12.612;2023-02-01T05:47:30;12.33;;;2.67;;
60060;SDS011;45933;51.336;12.612;2023-02-01T05:49:55;14.50;;;3.40;;
60060;SDS011;45933;51.336;12.612;2023-02-01T05:52:21;14.53;;;4.00;;
60060;SDS011;45933;51.336;12.612;2023-02-01T05:54:46;13.13;;;3.53;;
60060;SDS011;45933;51.336;12.612;2023-02-01T05:57:12;13.37;;;3.83;;
60060;SDS011;45933;51.336;12.612;2023-02-01T05:59:38;10.90;;;3.97;;
60060;SDS011;45933;51.336;12.612;2023-02-01T06:02:06;17.27;;;3.70;;
60060;SDS011;45933;51.336;12.612;2023-02-01T06:04:32;12.47;;;4.33;;
60060;SDS011;45933;51.336;12.612;2023-02-01T06:06:58;14.73;;;3.87;;
60060;SDS011;45933;51.336;12.612;2023-02-01T06:09:23;16.87;;;4.70;;
60060;SDS011;45933;51.336;12.612;2023-02-01T06:11:48;12.97;;;3.73;;
60060;SDS011;45933;51.336;12.612;2023-02-01T06:14:14;9.50;;;2.93;;
60060;SDS011;45933;51.336;12.612;2023-02-01T06:16:39;12.10;;;3.07;;
60060;SDS011;45933;51.336;12.612;2023-02-01T06:19:04;9.93;;;2.77;;
60060;SDS011;45933;51.336;12.612;2023-02-01T06:21:29;12.57;;;3.10;;
60060;SDS011;45933;51.336;12.612;2023-02-01T06:23:55;13.37;;;3.10;;
60060;SDS011;45933;51.336;12.612;2023-02-01T06:26:22;11.73;;;3.27;;
60060;SDS011;45933;51.336;12.612;2023-02-01T06:28:47;12.30;;;3.37;;
60060;SDS011;45933;51.336;12.612;2023-02-01T06:31:13;11.00;;;3.00;;
60060;SDS011;45933;51.336;12.612;2023-02-01T06:33:38;11.57;;;2.90;;
60060;SDS011;45933;51.336;12.612;2023-02-01T06:36:05;8.67;;;3.07;;
60060;SDS011;45933;51.336;12.612;2023-02-01T06:38:31;12.10;;;3.10;;
60060;SDS011;45933;51.336;12.612;2023-02-01T06:40:59;13.23;;;3.40;;
60060;SDS011;45933;51.336;12.612;2023-02-01T06:43:26;15.27;;;3.60;;
60060;SDS011;45933;51.336;12.612;2023-02-01T06:45:52;11.80;;;2.93;;
60060;SDS011;45933;51.336;12.612;2023-02-01T06:48:18;12.37;;;2.97;;
60060;SDS011;45933;51.336;12.612;2023-02-01T06:50:43;11.33;;;2.83;;
60060;SDS011;45933;51.336;12.612;2023-02-01T06:53:09;15.00;;;3.77;;
60060;SDS011;45933;51.336;12.612;2023-02-01T06:55:34;9.60;;;3.13;;
60060;SDS011;45933;51.336;12.612;2023-02-01T06:57:59;11.13;;;3.03;;
60060;SDS011;45933;51.336;12.612;2023-02-01T07:00:27;10.23;;;3.30;;
60060;SDS011;45933;51.336;12.612;2023-02-01T07:02:53;12.17;;;3.30;;
60060;SDS011;45933;51.336;12.612;2023-02-01T07:05:18;12.53;;;3.13;;
60060;SDS011;45933;51.336;12.612;2023-02-01T07:07:43;12.57;;;3.00;;
60060;SDS011;45933;51.336;12.612;2023-02-01T07:10:09;9.77;;;2.80;;
60060;SDS011;45933;51.336;12.612;2023-02-01T07:12:35;18.60;;;6.43;;
60060;SDS011;45933;51.336;12.612;2023-02-01T07:15:00;16.63;;;6.30;;
60060;SDS011;45933;51.336;12.612;2023-02-01T07:17:27;11.77;;;4.03;;
60060;SDS011;45933;51.336;12.612;2023-02-01T07:19:54;14.57;;;5.67;;
60060;SDS011;45933;51.336;12.612;2023-02-01T07:22:19;15.93;;;3.83;;
60060;SDS011;45933;51.336;12.612;2023-02-01T07:24:45;13.93;;;4.23;;
60060;SDS011;45933;51.336;12.612;2023-02-01T07:27:10;10.37;;;3.50;;
60060;SDS011;45933;51.336;12.612;2023-02-01T07:29:35;12.57;;;3.17;;
60060;SDS011;45933;51.336;12.612;2023-02-01T07:32:00;14.07;;;3.33;;
60060;SDS011;45933;51.336;12.612;2023-02-01T07:34:27;12.13;;;3.63;;
60060;SDS011;45933;51.336;12.612;2023-02-01T07:36:52;13.93;;;3.57;;
60060;SDS011;45933;51.336;12.612;2023-02-01T07:39:18;19.20;;;4.00;;
60060;SDS011;45933;51.336;12.612;2023-02-01T07:41:43;18.03;;;4.43;;
60060;SDS011;45933;51.336;12.612;2023-02-01T07:44:08;13.20;;;3.20;;
60060;SDS011;45933;51.336;12.612;2023-02-01T07:46:34;15.07;;;3.60;;
60060;SDS011;45933;51.336;12.612;2023-02-01T07:48:59;14.53;;;3.30;;
60060;SDS011;45933;51.336;12.612;2023-02-01T07:51:25;12.33;;;3.20;;
60060;SDS011;45933;51.336;12.612;2023-02-01T07:53:50;14.30;;;3.70;;
60060;SDS011;45933;51.336;12.612;2023-02-01T07:56:16;11.27;;;3.50;;
60060;SDS011;45933;51.336;12.612;2023-02-01T07:58:48;12.43;;;3.20;;
60060;SDS011;45933;51.336;12.612;2023-02-01T08:01:17;14.03;;;3.07;;
60060;SDS011;45933;51.336;12.612;2023-02-01T08:03:45;13.27;;;2.93;;
60060;SDS011;45933;51.336;12.612;2023-02-01T08:06:11;13.13;;;3.30;;
60060;SDS011;45933;51.336;12.612;2023-02-01T08:08:36;13.87;;;3.67;;
60060;SDS011;45933;51.336;12.612;2023-02-01T08:11:03;12.77;;;3.50;;
60060;SDS011;45933;51.336;12.612;2023-02-01T08:13:30;8.80;;;2.70;;
60060;SDS011;45933;51.336;12.612;2023-02-01T08:15:59;11.23;;;3.17;;
60060;SDS011;45933;51.336;12.612;2023-02-01T08:18:24;9.47;;;3.13;;
60060;SDS011;45933;51.336;12.612;2023-02-01T08:20:50;18.57;;;5.23;;
60060;SDS011;45933;51.336;12.612;2023-02-01T08:23:16;18.73;;;6.13;;
60060;SDS011;45933;51.336;12.612;2023-02-01T08:25:41;13.87;;;4.83;;
60060;SDS011;45933;51.336;12.612;2023-02-01T08:28:07;12.10;;;4.03;;
60060;SDS011;45933;51.336;12.612;2023-02-01T08:30:32;8.57;;;2.50;;
60060;SDS011;45933;51.336;12.612;2023-02-01T08:32:58;9.27;;;4.10;;
60060;SDS011;45933;51.336;12.612;2023-02-01T08:35:23;10.20;;;2.90;;
60060;SDS011;45933;51.336;12.612;2023-02-01T08:37:49;8.37;;;2.73;;
60060;SDS011;45933;51.336;12.612;2023-02-01T08:40:15;10.67;;;2.97;;
60060;SDS011;45933;51.336;12.612;2023-02-01T08:42:41;12.13;;;2.77;;
60060;SDS011;45933;51.336;12.612;2023-02-01T08:45:15;10.20;;;2.63;;
60060;SDS011;45933;51.336;12.612;2023-02-01T08:47:41;11.93;;;3.70;;
60060;SDS011;45933;51.336;12.612;2023-02-01T08:50:07;11.13;;;3.07;;
60060;SDS011;45933;51.336;12.612;2023-02-01T08:52:33;6.50;;;2.80;;
60060;SDS011;45933;51.336;12.612;2023-02-01T08:54:58;12.57;;;3.50;;
60060;SDS011;45933;51.336;12.612;2023-02-01T08:57:24;9.80;;;2.80;;
60060;SDS011;45933;51.336;12.612;2023-02-01T08:59:49;11.07;;;2.97;;
60060;SDS011;45933;51.336;12.612;2023-02-01T09:02:15;10.97;;;2.87;;
60060;SDS011;45933;51.336;12.612;2023-02-01T09:04:41;8.90;;;3.40;;
60060;SDS011;45933;51.336;12.612;2023-02-01T09:07:10;13.97;;;3.63;;
60060;SDS011;45933;51.336;12.612;2023-02-01T09:09:36;19.90;;;8.07;;
60060;SDS011;45933;51.336;12.612;2023-02-01T09:12:02;25.70;;;9.47;;
60060;SDS011;45933;51.336;12.612;2023-02-01T09:14:29;12.10;;;4.43;;
60060;SDS011;45933;51.336;12.612;2023-02-01T09:16:55;12.33;;;3.80;;
60060;SDS011;45933;51.336;12.612;2023-02-01T09:19:20;16.13;;;4.37;;
60060;SDS011;45933;51.336;12.612;2023-02-01T09:21:45;10.93;;;3.87;;
60060;SDS011;45933;51.336;12.612;2023-02-01T09:24:11;9.90;;;3.63;;
60060;SDS011;45933;51.336;12.612;2023-02-01T09:26:36;13.23;;;3.40;;
60060;SDS011;45933;51.336;12.612;2023-02-01T09:29:02;10.60;;;3.33;;
60060;SDS011;45933;51.336;12.612;2023-02-01T09:31:29;12.87;;;3.77;;
60060;SDS011;45933;51.336;12.612;2023-02-01T09:33:55;8.10;;;4.10;;
60060;SDS011;45933;51.336;12.612;2023-02-01T09:36:21;15.80;;;3.80;;
60060;SDS011;45933;51.336;12.612;2023-02-01T09:38:46;12.23;;;3.50;;
60060;SDS011;45933;51.336;12.612;2023-02-01T09:47:16;11.93;;;3.57;;
60060;SDS011;45933;51.336;12.612;2023-02-01T09:49:46;9.77;;;3.30;;
60060;SDS011;45933;51.336;12.612;2023-02-01T09:52:28;11.87;;;3.50;;
60060;SDS011;45933;51.336;12.612;2023-02-01T09:55:01;11.83;;;3.53;;
60060;SDS011;45933;51.336;12.612;2023-02-01T09:57:55;12.90;;;3.53;;
60060;SDS011;45933;51.336;12.612;2023-02-01T10:00:25;12.07;;;3.60;;
60060;SDS011;45933;51.336;12.612;2023-02-01T10:02:54;14.27;;;3.07;;
60060;SDS011;45933;51.336;12.612;2023-02-01T10:05:26;10.43;;;3.57;;
60060;SDS011;45933;51.336;12.612;2023-02-01T10:08:14;13.97;;;3.60;;
60060;SDS011;45933;51.336;12.612;2023-02-01T10:10:41;13.20;;;3.47;;
60060;SDS011;45933;51.336;12.612;2023-02-01T10:13:29;14.07;;;3.80;;
60060;SDS011;45933;51.336;12.612;2023-02-01T10:16:14;8.17;;;2.93;;
60060;SDS011;45933;51.336;12.612;2023-02-01T10:18:49;10.67;;;3.20;;
60060;SDS011;45933;51.336;12.612;2023-02-01T10:21:28;14.03;;;3.60;;
60060;SDS011;45933;51.336;12.612;2023-02-01T10:27:07;10.43;;;3.20;;
60060;SDS011;45933;51.336;12.612;2023-02-01T10:29:37;13.60;;;3.33;;
60060;SDS011;45933;51.336;12.612;2023-02-01T10:32:13;8.63;;;3.13;;
60060;SDS011;45933;51.336;12.612;2023-02-01T10:34:46;10.90;;;3.00;;
60060;SDS011;45933;51.336;12.612;2023-02-01T10:37:18;11.27;;;3.30;;
60060;SDS011;45933;51.336;12.612;2023-02-01T10:39:58;10.10;;;3.03;;
60060;SDS011;45933;51.336;12.612;2023-02-01T10:42:40;11.47;;;3.30;;
60060;SDS011;45933;51.336;12.612;2023-02-01T10:45:05;10.67;;;2.80;;
60060;SDS011;45933;51.336;12.612;2023-02-01T10:47:31;16.73;;;4.17;;
60060;SDS011;45933;51.336;12.612;2023-02-01T10:52:52;12.00;;;3.77;;
60060;SDS011;45933;51.336;12.612;2023-02-01T10:55:43;14.47;;;3.70;;
60060;SDS011;45933;51.336;12.612;2023-02-01T10:58:18;17.83;;;5.00;;
60060;SDS011;45933;51.336;12.612;2023-02-01T11:00:47;12.50;;;3.83;;
60060;SDS011;45933;51.336;12.612;2023-02-01T11:03:40;11.83;;;3.27;;
60060;SDS011;45933;51.336;12.612;2023-02-01T11:06:22;11.47;;;2.90;;
60060;SDS011;45933;51.336;12.612;2023-02-01T11:08:58;7.97;;;2.80;;
60060;SDS011;45933;51.336;12.612;2023-02-01T11:11:27;15.00;;;2.90;;
60060;SDS011;45933;51.336;12.612;2023-02-01T11:13:56;9.63;;;2.40;;
60060;SDS011;45933;51.336;12.612;2023-02-01T11:16:28;10.07;;;2.60;;
60060;SDS011;45933;51.336;12.612;2023-02-01T11:18:57;6.57;;;2.33;;
60060;SDS011;45933;51.336;12.612;2023-02-01T11:21:24;9.10;;;2.20;;
60060;SDS011;45933;51.336;12.612;2023-02-01T11:23:49;7.23;;;2.23;;
60060;SDS011;45933;51.336;12.612;2023-02-01T11:26:24;5.90;;;2.10;;
60060;SDS011;45933;51.336;12.612;2023-02-01T11:29:00;8.23;;;2.27;;
60060;SDS011;45933;51.336;12.612;2023-02-01T11:31:29;11.83;;;2.87;;
60060;SDS011;45933;51.336;12.612;2023-02-01T11:33:58;8.13;;;2.20;;
60060;SDS011;45933;51.336;12.612;2023-02-01T11:36:30;10.00;;;2.77;;
60060;SDS011;45933;51.336;12.612;2023-02-01T11:42:16;10.70;;;2.20;;
60060;SDS011;45933;51.336;12.612;2023-02-01T11:44:43;8.37;;;2.10;;
60060;SDS011;45933;51.336;12.612;2023-02-01T11:49:41;9.27;;;2.20;;
60060;SDS011;45933;51.336;12.612;2023-02-01T11:52:17;11.07;;;2.37;;
60060;SDS011;45933;51.336;12.612;2023-02-01T11:54:53;8.43;;;2.50;;
60060;SDS011;45933;51.336;12.612;2023-02-01T11:57:53;10.20;;;2.37;;
60060;SDS011;45933;51.336;12.612;2023-02-01T12:02:58;10.70;;;2.03;;
60060;SDS011;45933;51.336;12.612;2023-02-01T12:10:47;7.07;;;2.07;;
60060;SDS011;45933;51.336;12.612;2023-02-01T12:13:34;14.43;;;2.83;;
60060;SDS011;45933;51.336;12.612;2023-02-01T12:16:24;11.33;;;2.67;;
60060;SDS011;45933;51.336;12.612;2023-02-01T12:19:16;6.30;;;2.37;;
60060;SDS011;45933;51.336;12.612;2023-02-01T12:21:52;12.00;;;3.07;;
60060;SDS011;45933;51.336;12.612;2023-02-01T12:25:03;12.17;;;2.97;;
60060;SDS011;45933;51.336;12.612;2023-02-01T12:34:11;10.70;;;2.30;;
60060;SDS011;45933;51.336;12.612;2023-02-01T12:36:47;11.33;;;2.67;;
60060;SDS011;45933;51.336;12.612;2023-02-01T12:39:32;11.53;;;2.77;;
60060;SDS011;45933;51.336;12.612;2023-02-01T12:42:13;7.77;;;2.47;;
60060;SDS011;45933;51.336;12.612;2023-02-01T12:45:02;10.83;;;2.40;;
60060;SDS011;45933;51.336;12.612;2023-02-01T12:47:42;9.80;;;2.37;;
60060;SDS011;45933;51.336;12.612;2023-02-01T12:50:27;10.03;;;2.33;;
60060;SDS011;45933;51.336;12.612;2023-02-01T12:53:01;10.00;;;2.10;;
60060;SDS011;45933;51.336;12.612;2023-02-01T12:55:36;7.33;;;2.30;;
60060;SDS011;45933;51.336;12.612;2023-02-01T12:58:07;17.10;;;2.77;;
60060;SDS011;45933;51.336;12.612;2023-02-01T13:03:17;9.43;;;2.43;;
60060;SDS011;45933;51.336;12.612;2023-02-01T13:08:32;10.37;;;3.10;;
60060;SDS011;45933;51.336;12.612;2023-02-01T13:11:13;9.80;;;2.30;;
60060;SDS011;45933;51.336;12.612;2023-02-01T13:14:02;6.40;;;1.73;;
60060;SDS011;45933;51.336;12.612;2023-02-01T13:16:38;15.67;;;2.40;;
60060;SDS011;45933;51.336;12.612;2023-02-01T13:21:50;12.43;;;2.50;;
60060;SDS011;45933;51.336;12.612;2023-02-01T13:26:58;13.87;;;2.80;;
60060;SDS011;45933;51.336;12.612;2023-02-01T13:29:24;8.37;;;2.17;;
60060;SDS011;45933;51.336;12.612;2023-02-01T13:43:01;6.77;;;1.97;;
60060;SDS011;45933;51.336;12.612;2023-02-01T13:45:33;11.17;;;1.90;;
60060;SDS011;45933;51.336;12.612;2023-02-01T13:48:03;12.37;;;2.50;;
60060;SDS011;45933;51.336;12.612;2023-02-01T13:50:34;6.13;;;1.90;;
60060;SDS011;45933;51.336;12.612;2023-02-01T13:53:04;5.37;;;1.90;;
60060;SDS011;45933;51.336;12.612;2023-02-01T13:55:46;8.13;;;1.77;;
60060;SDS011;45933;51.336;12.612;2023-02-01T13:58:20;8.57;;;2.00;;
60060;SDS011;45933;51.336;12.612;2023-02-01T14:00:48;5.97;;;1.80;;
60060;SDS011;45933;51.336;12.612;2023-02-01T14:03:20;8.33;;;2.07;;
60060;SDS011;45933;51.336;12.612;2023-02-01T14:08:21;16.07;;;2.60;;
60060;SDS011;45933;51.336;12.612;2023-02-01T14:11:05;8.87;;;2.47;;
60060;SDS011;45933;51.336;12.612;2023-02-01T14:13:38;9.17;;;2.20;;
60060;SDS011;45933;51.336;12.612;2023-02-01T14:21:18;12.33;;;2.70;;
60060;SDS011;45933;51.336;12.612;2023-02-01T14:23:48;8.93;;;2.80;;
60060;SDS011;45933;51.336;12.612;2023-02-01T14:26:21;8.37;;;2.77;;
60060;SDS011;45933;51.336;12.612;2023-02-01T14:31:42;9.30;;;4.23;;
60060;SDS011;45933;51.336;12.612;2023-02-01T14:34:18;8.53;;;3.40;;
60060;SDS011;45933;51.336;12.612;2023-02-01T14:36:49;9.43;;;3.00;;
60060;SDS011;45933;51.336;12.612;2023-02-01T14:39:18;9.77;;;3.07;;
60060;SDS011;45933;51.336;12.612;2023-02-01T14:41:47;10.50;;;3.13;;
60060;SDS011;45933;51.336;12.612;2023-02-01T14:44:22;10.03;;;3.13;;
60060;SDS011;45933;51.336;12.612;2023-02-01T14:47:05;8.60;;;2.57;;
60060;SDS011;45933;51.336;12.612;2023-02-01T14:52:45;16.33;;;3.20;;
60060;SDS011;45933;51.336;12.612;2023-02-01T14:55:17;10.90;;;3.30;;
60060;SDS011;45933;51.336;12.612;2023-02-01T14:57:49;7.27;;;2.50;;
60060;SDS011;45933;51.336;12.612;2023-02-01T15:00:20;8.90;;;3.30;;
60060;SDS011;45933;51.336;12.612;2023-02-01T15:02:53;10.40;;;3.33;;
60060;SDS011;45933;51.336;12.612;2023-02-01T15:07:55;12.13;;;3.00;;
60060;SDS011;45933;51.336;12.612;2023-02-01T15:10:23;10.90;;;2.77;;
60060;SDS011;45933;51.336;12.612;2023-02-01T15:12:49;16.67;;;3.10;;
60060;SDS011;45933;51.336;12.612;2023-02-01T15:15:20;10.33;;;2.57;;
60060;SDS011;45933;51.336;12.612;2023-02-01T15:17:56;11.30;;;2.70;;
60060;SDS011;45933;51.336;12.612;2023-02-01T15:20:27;9.77;;;3.03;;
60060;SDS011;45933;51.336;12.612;2023-02-01T15:22:58;7.13;;;2.13;;
60060;SDS011;45933;51.336;12.612;2023-02-01T15:25:26;10.90;;;2.70;;
60060;SDS011;45933;51.336;12.612;2023-02-01T15:27:53;8.83;;;2.90;;
60060;SDS011;45933;51.336;12.612;2023-02-01T15:30:20;10.17;;;2.30;;
60060;SDS011;45933;51.336;12.612;2023-02-01T15:32:48;10.97;;;3.10;;
60060;SDS011;45933;51.336;12.612;2023-02-01T15:35:34;10.47;;;3.77;;
60060;SDS011;45933;51.336;12.612;2023-02-01T15:38:19;19.87;;;7.10;;
60060;SDS011;45933;51.336;12.612;2023-02-01T15:40:55;27.40;;;9.43;;
60060;SDS011;45933;51.336;12.612;2023-02-01T15:43:23;12.70;;;3.53;;
60060;SDS011;45933;51.336;12.612;2023-02-01T15:45:49;8.80;;;3.13;;
60060;SDS011;45933;51.336;12.612;2023-02-01T15:48:21;8.73;;;2.93;;
60060;SDS011;45933;51.336;12.612;2023-02-01T15:50:49;10.13;;;2.87;;
60060;SDS011;45933;51.336;12.612;2023-02-01T15:53:17;7.13;;;2.77;;
60060;SDS011;45933;51.336;12.612;2023-02-01T15:55:45;8.97;;;3.00;;
60060;SDS011;45933;51.336;12.612;2023-02-01T15:58:20;10.67;;;3.00;;
60060;SDS011;45933;51.336;12.612;2023-02-01T16:03:24;9.80;;;2.53;;
60060;SDS011;45933;51.336;12.612;2023-02-01T16:06:00;10.13;;;2.87;;
60060;SDS011;45933;51.336;12.612;2023-02-01T16:08:27;10.13;;;3.17;;
60060;SDS011;45933;51.336;12.612;2023-02-01T16:11:20;11.03;;;2.40;;
60060;SDS011;45933;51.336;12.612;2023-02-01T16:13:46;7.63;;;1.60;;
60060;SDS011;45933;51.336;12.612;2023-02-01T16:16:12;3.63;;;0.90;;
60060;SDS011;45933;51.336;12.612;2023-02-01T16:18:39;1.80;;;0.63;;
60060;SDS011;45933;51.336;12.612;2023-02-01T16:21:05;1.00;;;0.60;;
60060;SDS011;45933;51.336;12.612;2023-02-01T16:23:32;1.03;;;0.50;;